Etusivu
METAR-TAF:

METAR-TAF

Lentoasemat :

Halmstad, Ruotsi

Leveyspiiri: 56-41N, Pituuspiiri: 012-50E, korkeus merenpinnasta: 30 m

Tämänhetkinen sää

Tämä raportti tehtiin 37 minuuttia sitten, kello 19.20 UTC
Tuuli 12 kn lännestä
Lämpötila 11°C
Kosteus 82%
Ilmanpaine 1007 hPa
Näkyvyys 10 km tai enemmän
Muutamia pilviä 2000 ft:n korkeudessa
Hajanaisia pilviä 4900 ft:n korkeudessa

METAR: ESMT 241920Z 27012KT 9999 FEW020 SCT049 11/08 Q1007

Aika: 21:57 (19:57 UTC)

Sääennuste

Tämä raportti tehtiin 2 tuntia ja 54 minuuttia sitten, kello 17.03 UTC
Ennuste voimassa 24. päivästä klo 18 UTC - 24. päivään klo 21 UTC
Tuuli 15 kn lännestä/lounaasta
Näkyvyys 10 km tai enemmän
Hajonneita pilviä 2000 ft:n korkeudessa

TAF: ESMT 241703Z 2418/2421 25015KT 9999 BKN020

Säähavainnot ja -ennusteet yli 4000 lentoasemalta (METAR- ja TAF-raportit).

Käytössä olevat sääasemat on merkitty karttaan keltaisilla ja punaisilla pisteillä.

Aseta hiiri pisteen päälle nähdäksesi sääaseman nimen.

Klikkaa sitten nähdäksesi säähavainnot ja -ennusteet.

Kartan vaihtaminen: klikkaa mustalla rastilla varustettuja vihreitä pisteitä, niin voit zoomata sisään; viivalla varustettua vihreää pistettä, niin voit zoomata ulos tai vihreitä nuolia, niin pääset viereisille kartoille.


METAR-TAF: